createdAt,value
2023-01-06T00:23:06.502Z,5.6
2023-01-06T00:53:12.514Z,6
2023-01-06T01:23:17.567Z,6.2
2023-01-06T01:53:27.432Z,6.2
2023-01-06T02:23:28.505Z,6
2023-01-06T02:53:29.426Z,4.9
2023-01-06T03:23:38.351Z,3.4
2023-01-06T03:53:39.394Z,2.6
2023-01-06T04:23:46.292Z,2.8
2023-01-06T04:53:50.335Z,2.5
2023-01-06T05:23:53.446Z,2.6
2023-01-06T05:54:01.218Z,2.8
2023-01-06T06:24:03.214Z,3.5
2023-01-06T06:54:06.230Z,4
2023-01-06T07:24:11.233Z,4.6
2023-01-06T07:54:14.245Z,5.2
2023-01-06T08:24:21.192Z,6.2
2023-01-06T08:54:24.194Z,7
2023-01-06T09:24:25.089Z,7.9
2023-01-06T09:54:35.151Z,8.4
2023-01-06T10:24:40.156Z,9.3
2023-01-06T10:54:42.198Z,10
2023-01-06T11:24:45.093Z,10.3
2023-01-06T11:54:48.116Z,10.3
2023-01-06T12:24:57.057Z,10.4
2023-01-06T12:54:59.101Z,10.7
2023-01-06T13:25:02.015Z,11
2023-01-06T13:55:11.052Z,10.8
2023-01-06T14:25:17.074Z,10.8
2023-01-06T14:55:27.053Z,10.8
2023-01-06T15:25:33.041Z,10.5
2023-01-06T15:55:44.132Z,10.2
2023-01-06T16:25:45.071Z,9.5
2023-01-06T16:55:53.039Z,9.2
2023-01-06T17:25:54.022Z,9
2023-01-06T17:55:58.754Z,9.1
2023-01-06T18:26:03.861Z,8.8
2023-01-06T18:56:04.787Z,8.5
2023-01-06T19:26:07.780Z,8.4
2023-01-06T19:56:13.857Z,8.2
2023-01-06T20:26:16.795Z,8.2
2023-01-06T20:56:17.736Z,8.1
2023-01-06T21:26:19.772Z,8
2023-01-06T21:56:29.661Z,7.9
2023-01-06T22:26:31.801Z,7.9
2023-01-06T22:56:35.693Z,7.7
2023-01-06T23:26:40.703Z,7.7
2023-01-06T23:56:42.661Z,7.5
